Aviation Digital Data Service (ADDS)

Output produced by TAFs form (1327 UTC 16 September 2014)
found at http://aviationweather.gov/adds/tafs/
 
KLVS 161139Z 1612/1712 18008KT P6SM BKN006 
     TEMPO 1612/1614 6SM BR BKN003 
     FM161400 21007KT P6SM SCT006 BKN016 
     FM161600 20011KT P6SM SCT020 BKN120 
     FM162000 20012G22KT P6SM VCSH SCT060 BKN120 
     FM170100 VRB06KT P6SM BKN100